Valle Crucis, North Carolina
Current Conditions -  °F | °C
As of 7:35 AM on Wednesday 26 Nov 2014 (Local Time) from KTNB Reporting Station
Light Snow Light Snow  
Wind Chill: 27°   Ceiling: 1000
Heat Index: 33°   Visibility: 2.5mi
Dew Point: 33°   Wind: 7mph
Humidity: 100%   Direction: 300°WNW
Pressure: 29.94"   Gusts: NA
Location:  36.21°N, 81.78°W
Report Text: KTNB 261235Z AUTO 30006KT 2 1/2SM -SN BKN010 OVC015 01/01 A2994 RMK AO2 P0005 T00070007
Loading
Personal Weather Stations






























Interactive Weather Map New forecast layout! Learn more

10-Day Weather Forecast

Advertisements
Track Severe Weather on mobile